KFPR/FPR METAR and TAF weather

Enter ICAO airport designator
Station Type Date Time Source
KFPR METAR 2021/01/27 14:08 UTC NOAA

KFPR 271408Z 22003KT 7SM OVC010 21/20 A3009 RMK AO2 T02110200


Station Type Date Time Source
KFPR Decoded METAR 2021/01/27 14:08 UTC NOAA

FORT PIERCE ST LUCIE, FL, United States (KFPR) 27-30N 080-23W 13M
Jan 27, 2021 - 09:08 AM EST / 2021.01.27 1408 UTC
Wind: from the SW (220 degrees) at 3 MPH (3 KT):0
Visibility: 7 mile(s):0
Sky conditions: overcast
Temperature: 70.0 F (21.1 C)
Dew Point: 68.0 F (20.0 C)
Relative Humidity: 93%
Pressure (altimeter): 30.09 in. Hg (1018 hPa)
ob: KFPR 271408Z 22003KT 7SM OVC010 21/20 A3009 RMK AO2 T02110200
cycle: 14

Station Type Date Time Source
KFPR TAF 2021/01/27 13:33 UTC NOAA

TAF
AMD KFPR 271329Z 2713/2812 00000KT 3SM BR SCT007
TEMPO 2713/2714 1SM BR OVC007
FM271400 21006KT 6SM BR SCT007 BKN015
TEMPO 2714/2716 4SM BR SCT015 BKN025
FM271600 21007KT P6SM SCT025
FM271800 21010KT P6SM SCT040 SCT250

Example: see airport list